Decoded Metar for LFMT (MONTPELLIER in FRANCE) (IATA:MPL) | Meteo·Mobile Aviation Weather
aviador You're here:

LFMT Decoded Metar

MONTPELLIER in FRANCE
Report Time2018-08-21 16:00:00
UTC Time2018-08-21 16:06:21
Flight Rules vfr VFR
Wind180° at 05 kt
W.Decomp.*RWY 12: 2.5 kt HW 4.3 kt RCW
W.Rank180° ranks 26
Current wind is below 180° avg. (6.3)
Visibility9999 m
Phenomena:N/A
Clouds:N/A
Expected CloudBase > 5,200 ft AGL from Temp-Dew spread
CeilingNone
Temp31°C (ISA +16)
Dew Point18°C (46% RH)
Heat Index31.9°C
QNH1014 hPa
Density Alt2,096 ft
Elevation20 ft
Report Wrong Elevation
Raw Report
METAR LFMT 211600Z AUTO 18005KT CAVOK 31/18 Q1014 NOSIG=

Extra information for LFMT:More info

Metar Taf Metar & Taf Last 4 Metars F.Rules Stats Wind Profile Meteogram Temp Stats Airport Information Weather charts Add Link Nearby VenuesMetar ALERT Operation Metar Decoded Social comments